Portlaoise, Ireland
Current Conditions -  °F | °C
As of 11:00 PM on Wednesday 26 Nov 2014 (Local Time) from EIME Reporting Station
Haze Haze  
Wind Chill: 23°   Ceiling: Unl
Heat Index: 28°   Visibility: 3mi
Dew Point: 28°   Wind: 5mph
Humidity: 100%   Direction: 280°W
Pressure: 29.74"   Gusts: NA
Location:  53.04°N, 7.3°W
Report Text: EIME 262300Z 28004KT 5000 BR FEW002 M02/M02 Q1007
Loading
Personal Weather Stations






























Interactive Weather Map New forecast layout! Learn more

10-Day Weather Forecast

Advertisements
Track Severe Weather on mobile